Grasston, Minnesota
Current Conditions -  °F | °C
As of 6:20 PM on Tuesday 25 Nov 2014 (Local Time) from KJMR Reporting Station
Overcast Overcast  
Wind Chill: 19°   Ceiling: 3600
Heat Index: 19°   Visibility: 10mi
Dew Point: 10°   Wind: 3mph
Humidity: 68%   Direction: 160°SSE
Pressure: 30.02"   Gusts: NA
Location:  45.79°N, 93.15°W
Report Text: KJMR 260020Z AUTO 16003KT 10SM OVC036 M07/M12 A3002 RMK AO2
Loading
Personal Weather Stations






























Interactive Weather Map New forecast layout! Learn more

10-Day Weather Forecast

Advertisements
Track Severe Weather on mobile